createdAt,value
2022-09-23T00:01:14.494Z,59.40
2022-09-23T00:03:16.928Z,59.32
2022-09-23T00:05:19.276Z,58.98
2022-09-23T00:07:21.936Z,58.80
2022-09-23T00:09:24.712Z,58.91
2022-09-23T00:11:28.590Z,58.89
2022-09-23T00:13:30.819Z,58.72
2022-09-23T00:15:37.686Z,58.39
2022-09-23T00:17:40.812Z,58.91
2022-09-23T00:19:43.234Z,59.25
2022-09-23T00:21:45.691Z,59.19
2022-09-23T00:23:48.366Z,58.81
2022-09-23T00:25:58.353Z,59.14
2022-09-23T00:28:00.742Z,58.74
2022-09-23T00:30:04.746Z,58.95
2022-09-23T00:32:09.961Z,58.64
2022-09-23T00:34:12.281Z,59.14
2022-09-23T00:36:16.230Z,59.12
2022-09-23T00:38:18.465Z,59.03
2022-09-23T00:40:21.177Z,59.10
2022-09-23T00:42:27.058Z,59.46
2022-09-23T00:44:48.581Z,59.58
2022-09-23T00:46:51.096Z,59.87
2022-09-23T00:49:00.318Z,60.19
2022-09-23T00:51:02.545Z,59.97
2022-09-23T00:53:08.811Z,60.35
2022-09-23T00:55:15.950Z,60.20
2022-09-23T00:57:20.384Z,60.15
2022-09-23T00:59:24.671Z,60.28
2022-09-23T01:01:27.033Z,60.66
2022-09-23T01:03:29.335Z,60.68
2022-09-23T01:05:33.607Z,60.76
2022-09-23T01:07:35.871Z,60.65
2022-09-23T01:09:38.206Z,61.11
2022-09-23T01:11:47.302Z,61.77
2022-09-23T01:14:17.172Z,61.82
2022-09-23T01:16:44.355Z,61.70
2022-09-23T01:19:03.041Z,61.80
2022-09-23T01:21:24.829Z,61.82
2022-09-23T01:23:48.472Z,62.01
2022-09-23T01:26:25.456Z,61.56
2022-09-23T01:28:45.763Z,61.08
2022-09-23T01:31:15.014Z,61.23
2022-09-23T01:33:39.897Z,61.42
2022-09-23T01:35:53.256Z,60.93
2022-09-23T01:38:04.104Z,61.46
2022-09-23T01:40:32.525Z,60.98
2022-09-23T01:42:46.705Z,60.81
2022-09-23T01:44:57.874Z,60.51
2022-09-23T01:47:11.229Z,61.13
2022-09-23T01:49:23.192Z,60.85
2022-09-23T01:51:38.834Z,60.84
2022-09-23T01:53:54.502Z,60.98
2022-09-23T01:56:03.142Z,60.68
2022-09-23T01:58:15.333Z,60.55
2022-09-23T02:00:19.684Z,60.00
2022-09-23T02:02:32.922Z,60.86
2022-09-23T02:04:45.559Z,60.64
2022-09-23T02:06:55.688Z,60.21
2022-09-23T02:09:05.523Z,60.18
2022-09-23T02:11:11.287Z,60.11
2022-09-23T02:13:55.218Z,60.23
2022-09-23T02:16:02.387Z,60.02
2022-09-23T02:18:13.886Z,59.84
2022-09-23T02:20:23.110Z,59.89
2022-09-23T02:22:34.667Z,59.87
2022-09-23T02:24:39.105Z,59.69
2022-09-23T02:26:47.827Z,59.77
2022-09-23T02:29:18.075Z,59.59
2022-09-23T02:31:37.987Z,59.69
2022-09-23T02:33:46.804Z,59.64
2022-09-23T02:35:54.448Z,59.47
2022-09-23T02:38:08.666Z,59.22
2022-09-23T02:40:32.061Z,59.08
2022-09-23T02:43:08.294Z,59.03
2022-09-23T02:45:10.727Z,59.17
2022-09-23T02:47:12.855Z,59.25
2022-09-23T02:49:24.711Z,58.97
2022-09-23T02:51:29.043Z,59.12
2022-09-23T02:53:36.816Z,59.39
2022-09-23T02:55:39.768Z,59.27
2022-09-23T02:57:42.472Z,59.21
2022-09-23T02:59:46.291Z,59.29
2022-09-23T03:01:57.386Z,59.95
2022-09-23T03:04:36.885Z,59.60
2022-09-23T03:06:44.917Z,59.32
2022-09-23T03:08:58.516Z,60.02
2022-09-23T03:11:05.935Z,59.83
2022-09-23T03:13:35.741Z,59.80
2022-09-23T03:15:52.562Z,60.03
2022-09-23T03:18:14.689Z,60.51
2022-09-23T03:20:24.961Z,59.85
2022-09-23T03:22:33.641Z,60.41
2022-09-23T03:24:39.670Z,60.80
2022-09-23T03:26:46.845Z,61.05
2022-09-23T03:28:50.495Z,60.93
2022-09-23T03:30:54.690Z,60.61
2022-09-23T03:33:01.344Z,60.71
2022-09-23T03:35:05.318Z,60.68
2022-09-23T03:37:32.047Z,60.74
2022-09-23T03:39:56.254Z,61.08
2022-09-23T03:42:03.642Z,60.52
2022-09-23T03:44:08.290Z,60.63
2022-09-23T03:46:10.433Z,60.84
2022-09-23T03:48:15.310Z,60.98
2022-09-23T03:50:21.036Z,61.13
2022-09-23T03:52:25.228Z,61.00
2022-09-23T03:54:30.119Z,60.63
2022-09-23T03:56:32.508Z,60.85
2022-09-23T03:58:34.960Z,61.04
2022-09-23T04:00:37.692Z,61.09
2022-09-23T04:02:40.687Z,61.12
2022-09-23T04:04:43.898Z,61.75
2022-09-23T04:06:47.097Z,62.16
2022-09-23T04:08:49.657Z,62.13
2022-09-23T04:10:54.851Z,61.91
2022-09-23T04:12:57.505Z,62.39
2022-09-23T04:15:00.444Z,62.34
2022-09-23T04:17:02.967Z,62.35
2022-09-23T04:19:05.264Z,62.17
2022-09-23T04:21:07.558Z,62.46
2022-09-23T04:23:09.929Z,62.42
2022-09-23T04:25:15.194Z,62.88
2022-09-23T04:27:17.501Z,62.93
2022-09-23T04:29:20.631Z,63.01
2022-09-23T04:31:34.739Z,63.47
2022-09-23T04:33:38.125Z,63.27
2022-09-23T04:35:43.709Z,63.17
2022-09-23T04:37:49.478Z,63.56
2022-09-23T04:39:52.221Z,63.33
2022-09-23T04:42:00.026Z,64.06
2022-09-23T04:44:02.936Z,64.60
2022-09-23T04:46:07.551Z,63.76
2022-09-23T04:48:11.117Z,64.24
2022-09-23T04:50:13.800Z,63.92
2022-09-23T04:52:18.876Z,63.99
2022-09-23T04:54:21.044Z,64.37
2022-09-23T04:56:26.634Z,64.33
2022-09-23T04:58:29.692Z,64.21
2022-09-23T05:00:35.344Z,64.30
2022-09-23T05:02:43.510Z,64.91
2022-09-23T05:04:45.793Z,64.70
2022-09-23T05:06:48.370Z,64.78
2022-09-23T05:08:52.926Z,65.07
2022-09-23T05:11:05.349Z,65.86
2022-09-23T05:13:07.671Z,65.13
2022-09-23T05:15:10.456Z,64.82
2022-09-23T05:17:12.866Z,64.71
2022-09-23T05:19:15.639Z,65.33
2022-09-23T05:21:20.557Z,65.47
2022-09-23T05:23:24.112Z,65.11
2022-09-23T05:25:26.948Z,65.14
2022-09-23T05:27:29.654Z,65.39
2022-09-23T05:29:32.254Z,64.99
2022-09-23T05:31:34.928Z,65.21
2022-09-23T05:33:37.565Z,64.92
2022-09-23T05:35:40.426Z,65.09
2022-09-23T05:37:42.865Z,65.25
2022-09-23T05:39:46.785Z,65.86
2022-09-23T05:41:49.283Z,66.09
2022-09-23T05:43:53.275Z,65.14
2022-09-23T05:46:12.356Z,66.54
2022-09-23T05:48:14.811Z,65.71
2022-09-23T05:50:17.114Z,65.52
2022-09-23T05:52:19.424Z,65.53
2022-09-23T05:54:24.314Z,65.37
2022-09-23T05:56:28.177Z,66.03
2022-09-23T05:58:30.517Z,65.53
2022-09-23T06:00:33.151Z,65.62
2022-09-23T06:02:35.909Z,65.48
2022-09-23T06:04:38.730Z,65.86
2022-09-23T06:06:43.178Z,66.03
2022-09-23T06:08:46.218Z,66.25
2022-09-23T06:10:53.581Z,66.10
2022-09-23T06:12:56.958Z,65.70
2022-09-23T06:14:59.290Z,66.13
2022-09-23T06:17:04.416Z,65.89
2022-09-23T06:19:07.135Z,65.74
2022-09-23T06:21:13.387Z,66.35
2022-09-23T06:23:15.656Z,65.74
2022-09-23T06:25:19.786Z,65.86
2022-09-23T06:27:23.001Z,66.52
2022-09-23T06:29:24.960Z,66.06
2022-09-23T06:31:27.321Z,65.88
2022-09-23T06:33:36.641Z,66.20
2022-09-23T06:35:39.720Z,66.27
2022-09-23T06:37:41.953Z,66.11
2022-09-23T06:39:44.003Z,66.50
2022-09-23T06:41:48.717Z,66.34
2022-09-23T06:43:53.889Z,66.17
2022-09-23T06:45:58.098Z,66.27
2022-09-23T06:48:00.387Z,66.18
2022-09-23T06:50:02.881Z,66.06
2022-09-23T06:52:06.007Z,66.18
2022-09-23T06:54:08.518Z,66.08
2022-09-23T06:56:11.631Z,66.27
2022-09-23T06:58:14.137Z,66.36
2022-09-23T07:00:16.441Z,66.20
2022-09-23T07:02:21.241Z,66.25
2022-09-23T07:04:28.623Z,66.19
2022-09-23T07:06:31.557Z,65.68
2022-09-23T07:08:35.544Z,65.62
2022-09-23T07:10:37.944Z,65.60
2022-09-23T07:12:40.323Z,65.43
2022-09-23T07:14:42.695Z,64.88
2022-09-23T07:16:45.281Z,65.15
2022-09-23T07:18:47.651Z,65.44
2022-09-23T07:20:50.678Z,65.29
2022-09-23T07:22:53.415Z,65.51
2022-09-23T07:24:56.297Z,65.14
2022-09-23T07:26:58.522Z,65.13
2022-09-23T07:29:05.355Z,65.02
2022-09-23T07:31:13.371Z,65.15
2022-09-23T07:33:30.960Z,65.27
2022-09-23T07:35:35.035Z,65.24
2022-09-23T07:37:38.309Z,64.89
2022-09-23T07:39:42.132Z,65.07
2022-09-23T07:41:44.980Z,65.18
2022-09-23T07:43:49.844Z,65.32
2022-09-23T07:45:52.812Z,65.28
2022-09-23T07:47:55.983Z,65.32
2022-09-23T07:49:58.286Z,64.95
2022-09-23T07:52:00.422Z,64.84
2022-09-23T07:54:02.882Z,64.44
2022-09-23T07:56:06.860Z,64.41
2022-09-23T07:58:09.167Z,64.71
2022-09-23T08:00:16.545Z,64.94
2022-09-23T08:02:18.953Z,64.26
2022-09-23T08:04:28.575Z,64.10
2022-09-23T08:06:32.478Z,64.13
2022-09-23T08:08:35.960Z,63.85
2022-09-23T08:10:38.750Z,64.37
2022-09-23T08:12:41.045Z,64.30
2022-09-23T08:14:43.868Z,64.26
2022-09-23T08:16:47.259Z,64.16
2022-09-23T08:18:49.799Z,64.20
2022-09-23T08:20:52.294Z,63.89
2022-09-23T08:22:54.826Z,64.08
2022-09-23T08:24:58.583Z,64.01
2022-09-23T08:27:00.880Z,63.74
2022-09-23T08:29:05.660Z,63.87
2022-09-23T08:31:08.566Z,64.49
2022-09-23T08:33:14.249Z,64.10
2022-09-23T08:35:17.020Z,64.14
2022-09-23T08:37:19.134Z,63.79
2022-09-23T08:39:23.207Z,63.84
2022-09-23T08:41:44.106Z,64.22
2022-09-23T08:43:51.606Z,63.35
2022-09-23T08:45:56.287Z,63.05
2022-09-23T08:48:22.616Z,62.72
2022-09-23T08:50:37.387Z,62.56
2022-09-23T08:52:57.227Z,62.36
2022-09-23T08:54:59.627Z,61.95
2022-09-23T08:57:05.350Z,62.22
2022-09-23T08:59:52.158Z,62.43
2022-09-23T09:02:21.651Z,62.39
2022-09-23T09:04:53.262Z,61.80
2022-09-23T09:07:32.199Z,62.13
2022-09-23T09:09:38.078Z,61.94
2022-09-23T09:11:48.643Z,62.33
2022-09-23T09:14:04.732Z,60.97
2022-09-23T09:16:58.323Z,61.06
2022-09-23T09:18:58.716Z,61.13
2022-09-23T09:21:09.972Z,61.61
2022-09-23T09:23:22.917Z,61.12
2022-09-23T09:25:47.201Z,60.20
2022-09-23T09:27:50.305Z,61.50
2022-09-23T09:29:57.643Z,60.39
2022-09-23T09:32:00.202Z,59.64
2022-09-23T09:34:16.618Z,58.36
2022-09-23T09:36:27.585Z,58.32
2022-09-23T09:38:29.887Z,59.57
2022-09-23T09:40:34.733Z,58.49
2022-09-23T09:42:42.119Z,57.10
2022-09-23T09:44:58.761Z,54.99
2022-09-23T09:47:36.769Z,56.28
2022-09-23T09:49:49.600Z,55.43
2022-09-23T09:52:13.490Z,55.91
2022-09-23T09:54:18.391Z,55.75
2022-09-23T09:56:27.445Z,54.65
2022-09-23T09:58:54.646Z,54.57
2022-09-23T10:00:57.271Z,55.17
2022-09-23T10:03:15.247Z,55.24
2022-09-23T10:05:26.178Z,55.19
2022-09-23T10:07:31.292Z,55.78
2022-09-23T10:09:36.645Z,54.11
2022-09-23T10:11:40.127Z,54.85
2022-09-23T10:14:00.627Z,53.95
2022-09-23T10:16:04.247Z,54.39
2022-09-23T10:18:21.019Z,54.44
2022-09-23T10:20:24.856Z,55.21
2022-09-23T10:22:32.963Z,55.10
2022-09-23T10:28:55.812Z,51.56
2022-09-23T10:31:06.412Z,50.18
2022-09-23T10:33:28.142Z,51.53
2022-09-23T10:35:34.834Z,53.09
2022-09-23T10:38:02.489Z,51.96
2022-09-23T10:40:53.068Z,51.16
2022-09-23T10:43:36.186Z,51.73
2022-09-23T10:46:09.444Z,51.13
2022-09-23T10:48:34.556Z,51.27
2022-09-23T10:50:50.992Z,50.77
2022-09-23T10:53:18.976Z,49.10
2022-09-23T10:55:43.229Z,49.79
2022-09-23T10:57:45.854Z,51.79
2022-09-23T11:00:09.188Z,50.48
2022-09-23T11:02:49.478Z,51.14
2022-09-23T11:05:14.791Z,49.64
2022-09-23T11:07:40.834Z,48.76
2022-09-23T11:10:08.866Z,49.93
2022-09-23T11:12:25.746Z,50.94
2022-09-23T11:14:50.574Z,47.40
2022-09-23T11:17:15.654Z,50.57
2022-09-23T11:19:24.531Z,50.15
2022-09-23T11:21:49.834Z,48.13
2022-09-23T11:24:00.495Z,50.20
2022-09-23T11:26:05.778Z,49.87
2022-09-23T11:28:47.046Z,49.05
2022-09-23T11:31:15.090Z,48.83
2022-09-23T11:33:39.674Z,49.17
2022-09-23T11:35:53.371Z,47.46
2022-09-23T11:38:08.338Z,47.85
2022-09-23T11:40:35.263Z,47.49
2022-09-23T11:42:55.608Z,49.20
2022-09-23T11:45:21.579Z,47.42
2022-09-23T11:47:35.317Z,47.86
2022-09-23T11:50:02.377Z,47.55
2022-09-23T11:52:29.856Z,46.23
2022-09-23T11:54:58.033Z,48.89
2022-09-23T11:57:04.294Z,49.14
2022-09-23T11:59:12.634Z,48.82
2022-09-23T12:01:34.982Z,47.55
2022-09-23T12:04:10.069Z,46.20
2022-09-23T12:06:31.205Z,46.86
2022-09-23T12:08:37.411Z,47.69
2022-09-23T12:11:01.741Z,46.75
2022-09-23T12:13:16.287Z,47.85
2022-09-23T12:15:28.613Z,48.62
2022-09-23T12:17:49.131Z,48.32
2022-09-23T12:20:09.949Z,47.60
2022-09-23T12:22:33.357Z,48.08
2022-09-23T12:24:57.015Z,46.58
2022-09-23T12:27:06.528Z,47.54
2022-09-23T12:29:14.282Z,46.57
2022-09-23T12:31:21.222Z,46.63
2022-09-23T12:33:33.222Z,46.28
2022-09-23T12:35:44.868Z,46.04
2022-09-23T12:37:48.656Z,46.79
2022-09-23T12:39:50.883Z,46.37
2022-09-23T12:42:18.711Z,44.94
2022-09-23T12:44:32.012Z,46.33
2022-09-23T12:46:34.826Z,46.57
2022-09-23T12:49:27.652Z,45.52
2022-09-23T12:51:36.542Z,47.19
2022-09-23T12:53:39.086Z,46.96
2022-09-23T12:55:47.329Z,45.07
2022-09-23T12:57:50.206Z,46.50
2022-09-23T12:59:57.473Z,46.95
2022-09-23T13:02:34.591Z,46.54
2022-09-23T13:05:01.149Z,46.85
2022-09-23T13:07:09.392Z,46.19
2022-09-23T13:09:21.677Z,46.03
2022-09-23T13:11:31.824Z,45.35
2022-09-23T13:13:46.354Z,45.74
2022-09-23T13:15:48.785Z,45.83
2022-09-23T13:17:51.086Z,46.64
2022-09-23T13:20:07.265Z,46.02
2022-09-23T13:22:11.291Z,46.41
2022-09-23T13:24:13.471Z,46.19
2022-09-23T13:26:16.455Z,45.56
2022-09-23T13:28:27.589Z,45.38
2022-09-23T13:30:30.571Z,46.55
2022-09-23T13:32:40.862Z,45.20
2022-09-23T13:34:47.411Z,45.21
2022-09-23T13:36:49.541Z,45.44
2022-09-23T13:38:51.400Z,45.58
2022-09-23T13:41:03.506Z,45.45
2022-09-23T13:43:11.080Z,45.57
2022-09-23T13:45:18.927Z,43.57
2022-09-23T13:47:21.661Z,45.34
2022-09-23T13:49:26.629Z,44.35
2022-09-23T13:51:35.969Z,42.76
2022-09-23T13:53:38.522Z,43.98
2022-09-23T13:55:41.593Z,43.24
2022-09-23T13:57:43.493Z,42.87
2022-09-23T13:59:45.600Z,43.71
2022-09-23T14:01:47.729Z,43.82
2022-09-23T14:03:51.476Z,43.52
2022-09-23T14:05:56.725Z,43.35
2022-09-23T14:07:59.967Z,44.16
2022-09-23T14:10:02.224Z,44.15
2022-09-23T14:12:06.877Z,43.88
2022-09-23T14:14:15.256Z,43.89
2022-09-23T14:16:18.318Z,43.78
2022-09-23T14:18:32.627Z,42.92
2022-09-23T14:20:46.237Z,42.90
2022-09-23T14:22:48.344Z,42.76
2022-09-23T14:24:51.318Z,43.63
2022-09-23T14:27:14.628Z,42.20
2022-09-23T14:29:23.946Z,42.96
2022-09-23T14:31:26.327Z,43.60
2022-09-23T14:33:32.797Z,43.84
2022-09-23T14:35:46.749Z,43.11
2022-09-23T14:38:31.937Z,42.91
2022-09-23T14:40:37.306Z,42.51
2022-09-23T14:42:42.438Z,43.36
2022-09-23T14:44:50.543Z,42.52
2022-09-23T14:46:59.610Z,42.30
2022-09-23T14:49:06.030Z,41.54
2022-09-23T14:51:14.476Z,42.73
2022-09-23T14:53:24.777Z,42.70
2022-09-23T14:55:29.338Z,42.10
2022-09-23T14:57:32.064Z,42.58
2022-09-23T14:59:37.056Z,41.87
2022-09-23T15:01:39.754Z,41.75
2022-09-23T15:03:50.287Z,41.66
2022-09-23T15:05:58.477Z,42.06
2022-09-23T15:08:03.121Z,42.24
2022-09-23T15:10:23.828Z,42.27
2022-09-23T15:12:30.304Z,42.23
2022-09-23T15:14:41.056Z,42.15
2022-09-23T15:16:43.520Z,42.39
2022-09-23T15:18:46.462Z,42.54
2022-09-23T15:20:55.775Z,42.46
2022-09-23T15:22:58.123Z,43.19
2022-09-23T15:25:17.298Z,42.62
2022-09-23T15:27:32.791Z,42.31
2022-09-23T15:29:35.502Z,42.86
2022-09-23T15:31:41.133Z,43.46
2022-09-23T15:33:51.722Z,43.04
2022-09-23T15:35:54.968Z,42.86
2022-09-23T15:37:59.057Z,43.47
2022-09-23T15:40:01.507Z,43.36
2022-09-23T15:42:03.879Z,43.42
2022-09-23T15:44:14.042Z,43.40
2022-09-23T15:46:28.796Z,43.38
2022-09-23T15:48:39.696Z,43.50
2022-09-23T15:50:43.025Z,43.51
2022-09-23T15:52:45.554Z,44.24
2022-09-23T15:54:47.953Z,44.02
2022-09-23T15:56:50.027Z,44.49
2022-09-23T15:58:52.171Z,43.87
2022-09-23T16:00:56.942Z,44.57
2022-09-23T16:02:59.201Z,44.31
2022-09-23T16:05:06.111Z,44.35
2022-09-23T16:07:16.953Z,44.53
2022-09-23T16:09:19.207Z,44.75
2022-09-23T16:11:27.043Z,44.43
2022-09-23T16:13:29.809Z,45.00
2022-09-23T16:15:33.239Z,44.44
2022-09-23T16:17:38.026Z,45.15
2022-09-23T16:19:40.610Z,44.87
2022-09-23T16:21:43.631Z,44.58
2022-09-23T16:23:49.379Z,44.47
2022-09-23T16:25:54.578Z,44.64
2022-09-23T16:27:57.479Z,44.87
2022-09-23T16:29:59.845Z,45.47
2022-09-23T16:32:05.013Z,46.17
2022-09-23T16:34:10.039Z,45.43
2022-09-23T16:36:29.595Z,45.74
2022-09-23T16:38:32.502Z,46.83
2022-09-23T16:40:35.618Z,46.54
2022-09-23T16:42:39.406Z,46.59
2022-09-23T16:44:41.756Z,46.91
2022-09-23T16:46:43.928Z,46.86
2022-09-23T16:48:52.148Z,46.94
2022-09-23T16:50:55.230Z,46.57
2022-09-23T16:52:57.944Z,46.42
2022-09-23T16:55:00.301Z,47.53
2022-09-23T16:57:02.624Z,47.48
2022-09-23T16:59:08.078Z,47.57
2022-09-23T17:01:34.463Z,47.60
2022-09-23T17:03:42.668Z,47.72
2022-09-23T17:05:46.781Z,48.39
2022-09-23T17:07:52.106Z,49.05
2022-09-23T17:09:57.359Z,48.17
2022-09-23T17:12:26.995Z,48.68
2022-09-23T17:14:31.715Z,48.58
2022-09-23T17:16:35.354Z,48.50
2022-09-23T17:18:39.136Z,47.66
2022-09-23T17:20:41.763Z,48.71
2022-09-23T17:22:47.090Z,47.58
2022-09-23T17:24:49.670Z,47.88
2022-09-23T17:26:53.242Z,48.21
2022-09-23T17:28:57.925Z,48.37
2022-09-23T17:31:02.415Z,47.92
2022-09-23T17:33:04.342Z,48.28
2022-09-23T17:35:07.377Z,48.04
2022-09-23T17:37:09.459Z,48.48
2022-09-23T17:39:11.431Z,48.07
2022-09-23T17:41:14.578Z,49.18
2022-09-23T17:43:24.982Z,50.03
2022-09-23T17:45:27.137Z,49.88
2022-09-23T17:47:29.160Z,50.60
2022-09-23T17:49:35.610Z,49.38
2022-09-23T17:51:38.028Z,49.66
2022-09-23T17:53:42.367Z,49.03
2022-09-23T17:55:44.358Z,49.34
2022-09-23T17:57:51.717Z,50.33
2022-09-23T17:59:53.841Z,49.82
2022-09-23T18:01:56.007Z,50.56
2022-09-23T18:04:04.211Z,50.15
2022-09-23T18:06:14.686Z,50.07
2022-09-23T18:08:17.113Z,50.01
2022-09-23T18:10:19.526Z,49.96
2022-09-23T18:12:26.554Z,50.62
2022-09-23T18:14:32.438Z,50.52
2022-09-23T18:16:39.904Z,50.19
2022-09-23T18:18:44.872Z,49.77
2022-09-23T18:20:47.178Z,50.10
2022-09-23T18:22:49.418Z,50.34
2022-09-23T18:24:51.683Z,50.71
2022-09-23T18:27:00.066Z,51.18
2022-09-23T18:29:03.065Z,51.26
2022-09-23T18:31:05.355Z,51.58
2022-09-23T18:33:08.304Z,52.37
2022-09-23T18:35:11.280Z,52.16
2022-09-23T18:37:16.044Z,51.83
2022-09-23T18:39:19.136Z,51.78
2022-09-23T18:41:22.348Z,51.66
2022-09-23T18:43:40.578Z,51.94
2022-09-23T18:45:55.661Z,52.09
2022-09-23T18:48:16.661Z,51.63
2022-09-23T18:50:37.736Z,52.15
2022-09-23T18:52:39.964Z,51.45
2022-09-23T18:54:42.772Z,51.52
2022-09-23T18:56:44.879Z,51.50
2022-09-23T18:58:52.067Z,52.39
2022-09-23T19:00:54.276Z,52.34
2022-09-23T19:02:59.118Z,51.92
2022-09-23T19:05:02.227Z,52.46
2022-09-23T19:07:05.752Z,52.42
2022-09-23T19:09:08.115Z,52.38
2022-09-23T19:11:12.976Z,52.30
2022-09-23T19:13:15.440Z,51.78
2022-09-23T19:15:17.784Z,52.03
2022-09-23T19:17:19.910Z,52.37
2022-09-23T19:19:21.852Z,52.59
2022-09-23T19:21:24.373Z,52.45
2022-09-23T19:23:34.997Z,52.74
2022-09-23T19:25:37.202Z,52.58
2022-09-23T19:27:40.328Z,52.66
2022-09-23T19:29:42.573Z,52.59
2022-09-23T19:31:44.713Z,52.58
2022-09-23T19:33:59.371Z,53.23
2022-09-23T19:36:01.540Z,52.61
2022-09-23T19:38:03.905Z,52.93
2022-09-23T19:40:06.605Z,53.01
2022-09-23T19:42:10.045Z,53.25
2022-09-23T19:44:12.517Z,53.18
2022-09-23T19:46:15.606Z,53.26
2022-09-23T19:48:17.708Z,53.36
2022-09-23T19:50:20.589Z,52.91
2022-09-23T19:52:22.942Z,53.32
2022-09-23T19:54:26.762Z,53.16
2022-09-23T19:56:33.266Z,53.48
2022-09-23T19:58:35.779Z,53.49
2022-09-23T20:00:37.838Z,53.58
2022-09-23T20:02:40.334Z,53.84
2022-09-23T20:04:42.664Z,53.76
2022-09-23T20:06:46.144Z,54.19
2022-09-23T20:08:49.460Z,54.09
2022-09-23T20:10:51.358Z,54.37
2022-09-23T20:12:53.876Z,53.97
2022-09-23T20:14:55.851Z,53.83
2022-09-23T20:17:00.210Z,53.90
2022-09-23T20:19:04.127Z,54.09
2022-09-23T20:21:07.277Z,54.64
2022-09-23T20:23:09.862Z,55.42
2022-09-23T20:25:14.643Z,54.62
2022-09-23T20:27:16.799Z,55.43
2022-09-23T20:29:19.296Z,55.72
2022-09-23T20:31:22.690Z,55.14
2022-09-23T20:33:24.760Z,55.09
2022-09-23T20:35:26.744Z,54.85
2022-09-23T20:37:30.786Z,55.10
2022-09-23T20:39:32.678Z,55.33
2022-09-23T20:41:38.017Z,55.98
2022-09-23T20:43:40.680Z,55.79
2022-09-23T20:45:50.165Z,57.08
2022-09-23T20:47:52.222Z,56.21
2022-09-23T20:49:54.179Z,56.94
2022-09-23T20:51:56.102Z,56.55
2022-09-23T20:53:58.046Z,57.28
2022-09-23T20:56:00.926Z,56.54
2022-09-23T20:58:03.653Z,56.88
2022-09-23T21:00:07.887Z,57.11
2022-09-23T21:02:11.123Z,56.74
2022-09-23T21:04:13.312Z,56.66
2022-09-23T21:06:17.111Z,56.62
2022-09-23T21:08:19.694Z,56.53
2022-09-23T21:10:22.912Z,56.11
2022-09-23T21:12:24.756Z,56.09
2022-09-23T21:14:26.881Z,56.16
2022-09-23T21:16:29.996Z,55.98
2022-09-23T21:18:32.215Z,56.21
2022-09-23T21:20:34.327Z,56.12
2022-09-23T21:22:36.897Z,56.15
2022-09-23T21:25:25.719Z,56.28
2022-09-23T21:27:04.072Z,56.24
2022-09-23T21:29:06.998Z,56.92
2022-09-23T21:31:12.189Z,56.26
2022-09-23T21:33:15.158Z,56.07
2022-09-23T21:35:18.949Z,55.71
2022-09-23T21:37:21.835Z,56.35
2022-09-23T21:39:23.886Z,57.38
2022-09-23T21:41:26.046Z,56.88
2022-09-23T21:43:32.615Z,57.57
2022-09-23T21:45:34.648Z,56.66
2022-09-23T21:47:40.014Z,56.60
2022-09-23T21:49:44.853Z,56.32
2022-09-23T21:51:55.159Z,57.02
2022-09-23T21:53:58.559Z,56.80
2022-09-23T21:56:12.383Z,56.66
2022-09-23T21:58:16.026Z,56.77
2022-09-23T22:00:18.003Z,56.60
2022-09-23T22:02:20.617Z,56.52
2022-09-23T22:04:22.864Z,56.17
2022-09-23T22:06:27.530Z,56.19
2022-09-23T22:08:37.106Z,56.75
2022-09-23T22:10:39.215Z,56.13
2022-09-23T22:12:41.412Z,55.82
2022-09-23T22:14:46.218Z,56.53
2022-09-23T22:16:48.205Z,56.18
2022-09-23T22:18:52.596Z,55.83
2022-09-23T22:20:57.952Z,56.08
2022-09-23T22:23:00.558Z,56.10
2022-09-23T22:25:03.074Z,56.11
2022-09-23T22:27:07.869Z,55.84
2022-09-23T22:29:33.647Z,56.33
2022-09-23T22:31:54.703Z,56.09
2022-09-23T22:33:57.275Z,55.95
2022-09-23T22:36:03.999Z,56.26
2022-09-23T22:38:06.058Z,56.14
2022-09-23T22:40:11.749Z,56.37
2022-09-23T22:42:14.482Z,56.15
2022-09-23T22:44:18.908Z,56.22
2022-09-23T22:46:23.055Z,56.16
2022-09-23T22:48:27.479Z,55.94
2022-09-23T22:50:29.806Z,55.79
2022-09-23T22:52:33.605Z,55.94
2022-09-23T22:54:36.344Z,55.74
2022-09-23T22:56:38.867Z,55.57
2022-09-23T22:58:41.298Z,55.91
2022-09-23T23:00:43.749Z,55.87
2022-09-23T23:02:48.572Z,56.01
2022-09-23T23:04:51.044Z,56.27
2022-09-23T23:06:53.459Z,56.13
2022-09-23T23:09:00.398Z,56.19
2022-09-23T23:11:10.337Z,56.80
2022-09-23T23:13:12.822Z,56.64
2022-09-23T23:15:15.830Z,56.22
2022-09-23T23:17:19.042Z,56.36
2022-09-23T23:19:21.696Z,55.99
2022-09-23T23:21:28.908Z,55.88
2022-09-23T23:23:31.247Z,55.98
2022-09-23T23:25:33.599Z,55.78
2022-09-23T23:27:35.923Z,55.72
2022-09-23T23:29:38.130Z,55.75
2022-09-23T23:31:41.382Z,56.16
2022-09-23T23:33:44.759Z,56.60
2022-09-23T23:35:53.198Z,56.29
2022-09-23T23:37:55.586Z,56.27
2022-09-23T23:39:58.064Z,55.99
2022-09-23T23:42:05.124Z,56.12
2022-09-23T23:44:08.256Z,56.40
2022-09-23T23:46:11.743Z,56.42
2022-09-23T23:48:16.374Z,56.15
2022-09-23T23:50:18.372Z,56.40
2022-09-23T23:52:20.586Z,56.80
2022-09-23T23:54:22.646Z,56.72
2022-09-23T23:56:26.498Z,57.04
2022-09-23T23:58:29.274Z,56.91
